sensor_id;sensor_type;location;lat;lon;timestamp;pressure;altitude;pressure_sealevel;temperature;humidity
7180;BME280;3631;42.152;24.756;2024-03-08T00:02:35;86529.75;;;-144.30;100.00
7180;BME280;3631;42.152;24.756;2024-03-08T00:05:02;86541.69;;;-144.30;100.00
7180;BME280;3631;42.152;24.756;2024-03-08T00:07:29;86509.84;;;-144.30;100.00
7180;BME280;3631;42.152;24.756;2024-03-08T00:09:56;86593.38;;;-144.30;100.00
7180;BME280;3631;42.152;24.756;2024-03-08T00:12:24;86613.28;;;-144.30;100.00
7180;BME280;3631;42.152;24.756;2024-03-08T00:14:52;86545.66;;;-144.30;100.00
7180;BME280;3631;42.152;24.756;2024-03-08T00:17:20;86555.59;;;-144.30;100.00
7180;BME280;3631;42.152;24.756;2024-03-08T00:19:48;86557.59;;;-144.30;100.00
7180;BME280;3631;42.152;24.756;2024-03-08T00:22:15;86567.53;;;-144.30;100.00
7180;BME280;3631;42.152;24.756;2024-03-08T00:24:42;86565.53;;;-144.30;100.00
7180;BME280;3631;42.152;24.756;2024-03-08T00:27:10;86579.47;;;-144.30;100.00
7180;BME280;3631;42.152;24.756;2024-03-08T00:29:39;86531.72;;;-144.30;100.00
7180;BME280;3631;42.152;24.756;2024-03-08T00:32:06;86555.59;;;-144.30;100.00
7180;BME280;3631;42.152;24.756;2024-03-08T00:34:35;86549.63;;;-144.30;100.00
7180;BME280;3631;42.152;24.756;2024-03-08T00:37:03;86585.44;;;-144.30;100.00
7180;BME280;3631;42.152;24.756;2024-03-08T00:39:30;86575.47;;;-144.30;100.00
7180;BME280;3631;42.152;24.756;2024-03-08T00:41:57;86567.53;;;-144.30;100.00
7180;BME280;3631;42.152;24.756;2024-03-08T00:44:24;86561.56;;;-144.30;100.00
7180;BME280;3631;42.152;24.756;2024-03-08T00:46:52;86575.47;;;-144.30;100.00
7180;BME280;3631;42.152;24.756;2024-03-08T00:49:19;86531.72;;;-144.30;100.00
7180;BME280;3631;42.152;24.756;2024-03-08T00:51:46;86541.69;;;-144.30;100.00
7180;BME280;3631;42.152;24.756;2024-03-08T00:54:13;86593.38;;;-144.30;100.00
7180;BME280;3631;42.152;24.756;2024-03-08T00:56:41;86551.63;;;-144.30;100.00
7180;BME280;3631;42.152;24.756;2024-03-08T00:59:08;86549.63;;;-144.30;100.00
7180;BME280;3631;42.152;24.756;2024-03-08T01:01:34;86557.59;;;-144.30;100.00
7180;BME280;3631;42.152;24.756;2024-03-08T01:04:03;86549.63;;;-144.30;100.00
7180;BME280;3631;42.152;24.756;2024-03-08T01:06:30;86585.44;;;-144.30;100.00
7180;BME280;3631;42.152;24.756;2024-03-08T01:08:57;86521.78;;;-144.30;100.00
7180;BME280;3631;42.152;24.756;2024-03-08T01:11:24;86529.75;;;-144.30;100.00
7180;BME280;3631;42.152;24.756;2024-03-08T01:13:50;86525.75;;;-144.30;100.00
7180;BME280;3631;42.152;24.756;2024-03-08T01:16:18;86599.34;;;-144.30;100.00
7180;BME280;3631;42.152;24.756;2024-03-08T01:18:47;86543.66;;;-144.30;100.00
7180;BME280;3631;42.152;24.756;2024-03-08T01:21:15;86537.69;;;-144.30;100.00
7180;BME280;3631;42.152;24.756;2024-03-08T01:23:42;86565.53;;;-144.30;100.00
7180;BME280;3631;42.152;24.756;2024-03-08T01:26:10;86529.75;;;-144.30;100.00
7180;BME280;3631;42.152;24.756;2024-03-08T01:28:37;86541.69;;;-144.30;100.00
7180;BME280;3631;42.152;24.756;2024-03-08T01:31:04;86559.56;;;-144.30;100.00
7180;BME280;3631;42.152;24.756;2024-03-08T01:33:31;86501.91;;;-144.30;100.00
7180;BME280;3631;42.152;24.756;2024-03-08T01:35:58;86537.69;;;-144.30;100.00
7180;BME280;3631;42.152;24.756;2024-03-08T01:38:26;86549.63;;;-144.30;100.00
7180;BME280;3631;42.152;24.756;2024-03-08T01:40:53;86575.47;;;-144.30;100.00
7180;BME280;3631;42.152;24.756;2024-03-08T01:43:21;86537.69;;;-144.30;100.00
7180;BME280;3631;42.152;24.756;2024-03-08T01:45:48;86553.59;;;-144.30;100.00
7180;BME280;3631;42.152;24.756;2024-03-08T01:48:16;86531.72;;;-144.30;100.00
7180;BME280;3631;42.152;24.756;2024-03-08T01:50:43;86529.75;;;-144.30;100.00
7180;BME280;3631;42.152;24.756;2024-03-08T01:53:11;86557.59;;;-144.30;100.00
7180;BME280;3631;42.152;24.756;2024-03-08T01:55:42;86569.50;;;-144.30;100.00
7180;BME280;3631;42.152;24.756;2024-03-08T01:58:12;86553.59;;;-144.30;100.00
7180;BME280;3631;42.152;24.756;2024-03-08T02:00:42;86557.59;;;-144.30;100.00
7180;BME280;3631;42.152;24.756;2024-03-08T02:03:10;86527.75;;;-144.30;100.00
7180;BME280;3631;42.152;24.756;2024-03-08T02:05:38;86567.53;;;-144.30;100.00
7180;BME280;3631;42.152;24.756;2024-03-08T02:08:08;86519.81;;;-144.30;100.00
7180;BME280;3631;42.152;24.756;2024-03-08T02:10:38;86521.78;;;-144.30;100.00
7180;BME280;3631;42.152;24.756;2024-03-08T02:13:06;86549.63;;;-144.30;100.00
7180;BME280;3631;42.152;24.756;2024-03-08T02:15:51;86571.50;;;-144.30;100.00
7180;BME280;3631;42.152;24.756;2024-03-08T02:18:18;86573.50;;;-144.30;100.00
7180;BME280;3631;42.152;24.756;2024-03-08T02:20:46;86565.53;;;-144.30;100.00
7180;BME280;3631;42.152;24.756;2024-03-08T02:23:14;86597.34;;;-144.30;100.00
7180;BME280;3631;42.152;24.756;2024-03-08T02:25:41;86547.66;;;-144.30;100.00
7180;BME280;3631;42.152;24.756;2024-03-08T02:28:09;86573.50;;;-144.30;100.00
7180;BME280;3631;42.152;24.756;2024-03-08T02:30:37;86555.59;;;-144.30;100.00
7180;BME280;3631;42.152;24.756;2024-03-08T02:33:04;86599.34;;;-144.30;100.00
7180;BME280;3631;42.152;24.756;2024-03-08T02:35:31;86561.56;;;-144.30;100.00
7180;BME280;3631;42.152;24.756;2024-03-08T02:37:59;86505.88;;;-144.30;100.00
7180;BME280;3631;42.152;24.756;2024-03-08T02:40:26;86565.53;;;-144.30;100.00
7180;BME280;3631;42.152;24.756;2024-03-08T02:42:53;86581.44;;;-144.30;100.00
7180;BME280;3631;42.152;24.756;2024-03-08T02:45:20;86557.59;;;-144.30;100.00
7180;BME280;3631;42.152;24.756;2024-03-08T02:47:47;86527.75;;;-144.30;100.00
7180;BME280;3631;42.152;24.756;2024-03-08T02:50:16;86573.50;;;-144.30;100.00
7180;BME280;3631;42.152;24.756;2024-03-08T02:52:42;86589.41;;;-144.30;100.00
7180;BME280;3631;42.152;24.756;2024-03-08T02:55:13;86583.44;;;-144.30;100.00
7180;BME280;3631;42.152;24.756;2024-03-08T02:57:41;86575.47;;;-144.30;100.00
7180;BME280;3631;42.152;24.756;2024-03-08T03:00:09;86593.38;;;-144.30;100.00
7180;BME280;3631;42.152;24.756;2024-03-08T03:02:37;86597.34;;;-144.30;100.00
7180;BME280;3631;42.152;24.756;2024-03-08T03:05:04;86569.50;;;-144.30;100.00
7180;BME280;3631;42.152;24.756;2024-03-08T03:07:32;86607.31;;;-144.30;100.00
7180;BME280;3631;42.152;24.756;2024-03-08T03:09:59;86621.22;;;-144.30;100.00
7180;BME280;3631;42.152;24.756;2024-03-08T03:12:28;86619.22;;;-144.30;100.00
7180;BME280;3631;42.152;24.756;2024-03-08T03:14:55;86575.47;;;-144.30;100.00
7180;BME280;3631;42.152;24.756;2024-03-08T03:17:22;86621.22;;;-144.30;100.00
7180;BME280;3631;42.152;24.756;2024-03-08T03:19:50;86625.19;;;-144.30;100.00
7180;BME280;3631;42.152;24.756;2024-03-08T03:22:17;86585.44;;;-144.30;100.00
7180;BME280;3631;42.152;24.756;2024-03-08T03:24:44;86605.31;;;-144.30;100.00
7180;BME280;3631;42.152;24.756;2024-03-08T03:27:11;86589.41;;;-144.30;100.00
7180;BME280;3631;42.152;24.756;2024-03-08T03:29:40;86541.69;;;-144.30;100.00
7180;BME280;3631;42.152;24.756;2024-03-08T03:32:11;86575.47;;;-144.30;100.00
7180;BME280;3631;42.152;24.756;2024-03-08T03:34:37;86609.28;;;-144.30;100.00
7180;BME280;3631;42.152;24.756;2024-03-08T03:37:05;86625.19;;;-144.30;100.00
7180;BME280;3631;42.152;24.756;2024-03-08T03:39:32;86649.06;;;-144.30;100.00
7180;BME280;3631;42.152;24.756;2024-03-08T03:41:59;86649.06;;;-144.30;100.00
7180;BME280;3631;42.152;24.756;2024-03-08T03:44:27;86627.19;;;-144.30;100.00
7180;BME280;3631;42.152;24.756;2024-03-08T03:46:55;86621.22;;;-144.30;100.00
7180;BME280;3631;42.152;24.756;2024-03-08T03:49:22;86651.06;;;-144.30;100.00
7180;BME280;3631;42.152;24.756;2024-03-08T03:51:49;86659.00;;;-144.30;100.00
7180;BME280;3631;42.152;24.756;2024-03-08T03:54:16;86662.97;;;-144.30;100.00
7180;BME280;3631;42.152;24.756;2024-03-08T03:56:43;86664.97;;;-144.30;100.00
7180;BME280;3631;42.152;24.756;2024-03-08T03:59:10;86680.88;;;-144.30;100.00
7180;BME280;3631;42.152;24.756;2024-03-08T04:01:41;86662.97;;;-144.30;100.00
7180;BME280;3631;42.152;24.756;2024-03-08T04:04:10;86631.16;;;-144.30;100.00
7180;BME280;3631;42.152;24.756;2024-03-08T04:06:37;86637.13;;;-144.30;100.00
7180;BME280;3631;42.152;24.756;2024-03-08T04:09:04;86609.28;;;-144.30;100.00
7180;BME280;3631;42.152;24.756;2024-03-08T04:11:31;86619.22;;;-144.30;100.00
7180;BME280;3631;42.152;24.756;2024-03-08T04:13:58;86668.94;;;-144.30;100.00
7180;BME280;3631;42.152;24.756;2024-03-08T04:16:25;86641.09;;;-144.30;100.00
7180;BME280;3631;42.152;24.756;2024-03-08T04:18:52;86623.22;;;-144.30;100.00
7180;BME280;3631;42.152;24.756;2024-03-08T04:21:20;86659.00;;;-144.30;100.00
7180;BME280;3631;42.152;24.756;2024-03-08T04:23:48;86627.19;;;-144.30;100.00
7180;BME280;3631;42.152;24.756;2024-03-08T04:26:15;86645.09;;;-144.30;100.00
7180;BME280;3631;42.152;24.756;2024-03-08T04:28:42;86629.19;;;-144.30;100.00
7180;BME280;3631;42.152;24.756;2024-03-08T04:31:09;86629.19;;;-144.30;100.00
7180;BME280;3631;42.152;24.756;2024-03-08T04:33:36;86661.00;;;-144.30;100.00
7180;BME280;3631;42.152;24.756;2024-03-08T04:36:03;86575.47;;;-144.30;100.00
7180;BME280;3631;42.152;24.756;2024-03-08T04:38:32;86625.19;;;-144.30;100.00
7180;BME280;3631;42.152;24.756;2024-03-08T04:40:59;86627.19;;;-144.30;100.00
7180;BME280;3631;42.152;24.756;2024-03-08T04:43:28;86662.97;;;-144.30;100.00
7180;BME280;3631;42.152;24.756;2024-03-08T04:45:55;86674.91;;;-144.30;100.00
7180;BME280;3631;42.152;24.756;2024-03-08T04:48:22;86682.88;;;-144.30;100.00
7180;BME280;3631;42.152;24.756;2024-03-08T04:50:52;86647.06;;;-144.30;100.00
7180;BME280;3631;42.152;24.756;2024-03-08T04:53:20;86637.13;;;-144.30;100.00
7180;BME280;3631;42.152;24.756;2024-03-08T04:55:48;86645.09;;;-144.30;100.00
7180;BME280;3631;42.152;24.756;2024-03-08T04:58:15;86633.16;;;-144.30;100.00
7180;BME280;3631;42.152;24.756;2024-03-08T05:00:42;86625.19;;;-144.30;100.00
7180;BME280;3631;42.152;24.756;2024-03-08T05:03:09;86635.13;;;-144.30;100.00
7180;BME280;3631;42.152;24.756;2024-03-08T05:05:35;86629.19;;;-144.30;100.00
7180;BME280;3631;42.152;24.756;2024-03-08T05:08:03;86434.28;;;-144.30;100.00
7180;BME280;3631;42.152;24.756;2024-03-08T05:10:30;86633.16;;;-144.30;100.00
7180;BME280;3631;42.152;24.756;2024-03-08T05:12:59;86637.13;;;-144.30;100.00
7180;BME280;3631;42.152;24.756;2024-03-08T05:15:26;86651.06;;;-144.30;100.00
7180;BME280;3631;42.152;24.756;2024-03-08T05:17:53;86589.41;;;-144.30;100.00
7180;BME280;3631;42.152;24.756;2024-03-08T05:20:21;86625.19;;;-144.30;100.00
7180;BME280;3631;42.152;24.756;2024-03-08T05:22:48;86664.97;;;-144.30;100.00
7180;BME280;3631;42.152;24.756;2024-03-08T05:25:16;86676.91;;;-144.30;100.00
7180;BME280;3631;42.152;24.756;2024-03-08T05:27:44;86688.84;;;-144.30;100.00
7180;BME280;3631;42.152;24.756;2024-03-08T05:30:15;86672.94;;;-144.30;100.00
7180;BME280;3631;42.152;24.756;2024-03-08T05:32:44;86692.81;;;-144.30;100.00
7180;BME280;3631;42.152;24.756;2024-03-08T05:35:14;86662.97;;;-144.30;100.00
7180;BME280;3631;42.152;24.756;2024-03-08T05:37:41;86661.00;;;-144.30;100.00
7180;BME280;3631;42.152;24.756;2024-03-08T05:40:09;86657.03;;;-144.30;100.00
7180;BME280;3631;42.152;24.756;2024-03-08T05:42:36;86668.94;;;-144.30;100.00
7180;BME280;3631;42.152;24.756;2024-03-08T05:45:03;86651.06;;;-144.30;100.00
7180;BME280;3631;42.152;24.756;2024-03-08T05:47:33;86666.97;;;-144.30;100.00
7180;BME280;3631;42.152;24.756;2024-03-08T05:50:00;86672.94;;;-144.30;100.00
7180;BME280;3631;42.152;24.756;2024-03-08T05:52:27;87639.56;;;-144.30;100.00
7180;BME280;3631;42.152;24.756;2024-03-08T05:54:54;86664.97;;;-144.30;100.00
7180;BME280;3631;42.152;24.756;2024-03-08T05:57:21;86670.94;;;-144.30;100.00
7180;BME280;3631;42.152;24.756;2024-03-08T05:59:48;86662.97;;;-144.30;100.00
7180;BME280;3631;42.152;24.756;2024-03-08T06:02:15;86672.94;;;-144.30;100.00
7180;BME280;3631;42.152;24.756;2024-03-08T06:04:46;86603.31;;;-144.30;100.00
7180;BME280;3631;42.152;24.756;2024-03-08T06:07:13;86653.03;;;-144.30;100.00
7180;BME280;3631;42.152;24.756;2024-03-08T06:09:40;86607.31;;;-144.30;100.00
7180;BME280;3631;42.152;24.756;2024-03-08T06:12:10;86661.00;;;-144.30;100.00
7180;BME280;3631;42.152;24.756;2024-03-08T06:14:37;86649.06;;;-144.30;100.00
7180;BME280;3631;42.152;24.756;2024-03-08T06:17:04;86649.06;;;-144.30;100.00
7180;BME280;3631;42.152;24.756;2024-03-08T06:19:32;86633.16;;;-144.30;100.00
7180;BME280;3631;42.152;24.756;2024-03-08T06:22:01;86627.19;;;-144.30;100.00
7180;BME280;3631;42.152;24.756;2024-03-08T06:24:31;86635.13;;;-144.30;100.00
7180;BME280;3631;42.152;24.756;2024-03-08T06:26:57;86633.16;;;-144.30;100.00
7180;BME280;3631;42.152;24.756;2024-03-08T06:29:24;86659.00;;;-144.30;100.00
7180;BME280;3631;42.152;24.756;2024-03-08T06:31:51;86643.09;;;-144.30;100.00
7180;BME280;3631;42.152;24.756;2024-03-08T06:34:19;86625.19;;;-144.30;100.00
7180;BME280;3631;42.152;24.756;2024-03-08T06:36:46;86625.19;;;-144.30;100.00
7180;BME280;3631;42.152;24.756;2024-03-08T06:39:14;86579.47;;;-144.30;100.00
7180;BME280;3631;42.152;24.756;2024-03-08T06:41:41;86609.28;;;-144.30;100.00
7180;BME280;3631;42.152;24.756;2024-03-08T06:44:10;86635.13;;;-144.30;100.00
7180;BME280;3631;42.152;24.756;2024-03-08T06:46:36;86649.06;;;-144.30;100.00
7180;BME280;3631;42.152;24.756;2024-03-08T06:49:04;86645.09;;;-144.30;100.00
7180;BME280;3631;42.152;24.756;2024-03-08T06:51:32;86617.25;;;-144.30;100.00
7180;BME280;3631;42.152;24.756;2024-03-08T06:53:59;86629.19;;;-144.30;100.00
7180;BME280;3631;42.152;24.756;2024-03-08T06:56:27;86633.16;;;-144.30;100.00
7180;BME280;3631;42.152;24.756;2024-03-08T06:58:55;86643.09;;;-144.30;100.00
7180;BME280;3631;42.152;24.756;2024-03-08T07:01:22;86649.06;;;-144.30;100.00
7180;BME280;3631;42.152;24.756;2024-03-08T07:03:48;86639.13;;;-144.30;100.00
7180;BME280;3631;42.152;24.756;2024-03-08T07:06:17;86625.19;;;-144.30;100.00
7180;BME280;3631;42.152;24.756;2024-03-08T07:08:45;86615.25;;;-144.30;100.00
7180;BME280;3631;42.152;24.756;2024-03-08T07:11:14;86619.22;;;-144.30;100.00
7180;BME280;3631;42.152;24.756;2024-03-08T07:13:45;86601.34;;;-144.30;100.00
7180;BME280;3631;42.152;24.756;2024-03-08T07:16:12;86593.38;;;-144.30;100.00
7180;BME280;3631;42.152;24.756;2024-03-08T07:18:38;86615.25;;;-144.30;100.00
7180;BME280;3631;42.152;24.756;2024-03-08T07:21:08;86589.41;;;-144.30;100.00
7180;BME280;3631;42.152;24.756;2024-03-08T07:23:35;86617.25;;;-144.30;100.00
7180;BME280;3631;42.152;24.756;2024-03-08T07:26:35;86593.38;;;-144.30;100.00
7180;BME280;3631;42.152;24.756;2024-03-08T07:29:03;86607.31;;;-144.30;100.00
7180;BME280;3631;42.152;24.756;2024-03-08T07:31:30;86633.16;;;-144.30;100.00
7180;BME280;3631;42.152;24.756;2024-03-08T07:34:10;86651.06;;;-144.30;100.00
7180;BME280;3631;42.152;24.756;2024-03-08T07:36:38;86641.09;;;-144.30;100.00
7180;BME280;3631;42.152;24.756;2024-03-08T07:39:04;86601.34;;;-144.30;100.00
7180;BME280;3631;42.152;24.756;2024-03-08T07:41:37;86635.13;;;-144.30;100.00
7180;BME280;3631;42.152;24.756;2024-03-08T07:44:07;86603.31;;;-144.30;100.00
7180;BME280;3631;42.152;24.756;2024-03-08T07:46:34;86585.44;;;-144.30;100.00
7180;BME280;3631;42.152;24.756;2024-03-08T07:49:02;86579.47;;;-144.30;100.00
7180;BME280;3631;42.152;24.756;2024-03-08T07:51:29;86563.56;;;-144.30;100.00
7180;BME280;3631;42.152;24.756;2024-03-08T07:53:56;86565.53;;;-144.30;100.00
7180;BME280;3631;42.152;24.756;2024-03-08T07:56:23;86573.50;;;-144.30;100.00
7180;BME280;3631;42.152;24.756;2024-03-08T07:58:50;86587.41;;;-144.30;100.00
7180;BME280;3631;42.152;24.756;2024-03-08T08:01:20;86569.50;;;-144.30;100.00
7180;BME280;3631;42.152;24.756;2024-03-08T08:03:47;86571.50;;;-144.30;100.00
7180;BME280;3631;42.152;24.756;2024-03-08T08:06:15;86531.72;;;-144.30;100.00
7180;BME280;3631;42.152;24.756;2024-03-08T08:08:42;86573.50;;;-144.30;100.00
7180;BME280;3631;42.152;24.756;2024-03-08T08:11:09;86553.59;;;-144.30;100.00
7180;BME280;3631;42.152;24.756;2024-03-08T08:13:37;86533.72;;;-144.30;100.00
7180;BME280;3631;42.152;24.756;2024-03-08T08:16:04;86523.78;;;-144.30;100.00
7180;BME280;3631;42.152;24.756;2024-03-08T08:18:33;86573.50;;;-144.30;100.00
7180;BME280;3631;42.152;24.756;2024-03-08T08:21:00;86581.44;;;-144.30;100.00
7180;BME280;3631;42.152;24.756;2024-03-08T08:23:27;86555.59;;;-144.30;100.00
7180;BME280;3631;42.152;24.756;2024-03-08T08:25:55;86529.75;;;-144.30;100.00
7180;BME280;3631;42.152;24.756;2024-03-08T08:28:21;86547.66;;;-144.30;100.00
7180;BME280;3631;42.152;24.756;2024-03-08T08:30:50;86533.72;;;-144.30;100.00
7180;BME280;3631;42.152;24.756;2024-03-08T08:33:17;86561.56;;;-144.30;100.00
7180;BME280;3631;42.152;24.756;2024-03-08T08:35:46;86513.84;;;-144.30;100.00
7180;BME280;3631;42.152;24.756;2024-03-08T08:38:13;86555.59;;;-144.30;100.00
7180;BME280;3631;42.152;24.756;2024-03-08T08:40:40;86531.72;;;-144.30;100.00
7180;BME280;3631;42.152;24.756;2024-03-08T08:43:07;86521.78;;;-144.30;100.00
7180;BME280;3631;42.152;24.756;2024-03-08T08:45:34;86565.53;;;-144.30;100.00
7180;BME280;3631;42.152;24.756;2024-03-08T08:48:01;86565.53;;;-144.30;100.00
7180;BME280;3631;42.152;24.756;2024-03-08T08:50:30;86474.06;;;-144.30;100.00
7180;BME280;3631;42.152;24.756;2024-03-08T08:52:59;86454.19;;;-144.30;100.00
7180;BME280;3631;42.152;24.756;2024-03-08T08:55:26;86537.69;;;-144.30;100.00
7180;BME280;3631;42.152;24.756;2024-03-08T08:57:53;86505.88;;;-144.30;99.84
7180;BME280;3631;42.152;24.756;2024-03-08T09:00:22;86507.88;;;-144.30;99.66
7180;BME280;3631;42.152;24.756;2024-03-08T09:02:52;86497.94;;;-144.30;99.85
7180;BME280;3631;42.152;24.756;2024-03-08T09:05:20;86462.13;;;-144.30;98.82
7180;BME280;3631;42.152;24.756;2024-03-08T09:07:49;86482.03;;;-144.30;99.07
7180;BME280;3631;42.152;24.756;2024-03-08T09:10:18;86470.09;;;-144.30;98.19
7180;BME280;3631;42.152;24.756;2024-03-08T09:12:45;86450.19;;;-144.30;97.62
7180;BME280;3631;42.152;24.756;2024-03-08T09:15:13;86446.22;;;-144.30;97.56
7180;BME280;3631;42.152;24.756;2024-03-08T09:17:41;86442.25;;;-144.30;96.37
7180;BME280;3631;42.152;24.756;2024-03-08T09:20:09;86257.31;;;-144.30;96.46
7180;BME280;3631;42.152;24.756;2024-03-08T09:22:40;86438.28;;;-144.30;96.00
7180;BME280;3631;42.152;24.756;2024-03-08T09:25:07;86440.25;;;-144.30;94.90
7180;BME280;3631;42.152;24.756;2024-03-08T09:27:36;86450.19;;;-144.30;94.92
7180;BME280;3631;42.152;24.756;2024-03-08T09:30:06;86362.72;;;-144.30;96.08
7180;BME280;3631;42.152;24.756;2024-03-08T09:32:33;86354.75;;;-144.30;95.47
7180;BME280;3631;42.152;24.756;2024-03-08T09:34:59;86422.38;;;-144.30;95.69
7180;BME280;3631;42.152;24.756;2024-03-08T09:37:27;86386.56;;;-144.30;95.61
7180;BME280;3631;42.152;24.756;2024-03-08T09:39:53;86408.44;;;-144.30;94.14
7180;BME280;3631;42.152;24.756;2024-03-08T09:42:20;86396.50;;;-144.30;93.19
7180;BME280;3631;42.152;24.756;2024-03-08T09:44:49;86376.63;;;-144.30;92.30
7180;BME280;3631;42.152;24.756;2024-03-08T09:47:18;86408.44;;;-144.30;93.26
7180;BME280;3631;42.152;24.756;2024-03-08T09:49:44;86422.38;;;-144.30;93.56
7180;BME280;3631;42.152;24.756;2024-03-08T09:52:12;86408.44;;;-144.30;93.14
7180;BME280;3631;42.152;24.756;2024-03-08T09:54:40;86422.38;;;-144.30;93.39
7180;BME280;3631;42.152;24.756;2024-03-08T09:57:10;86482.03;;;-144.30;93.21
7180;BME280;3631;42.152;24.756;2024-03-08T09:59:37;86442.25;;;-144.30;93.51
7180;BME280;3631;42.152;24.756;2024-03-08T10:02:16;86398.50;;;-144.30;93.47
7180;BME280;3631;42.152;24.756;2024-03-08T10:04:44;86702.75;;;-144.30;94.55
7180;BME280;3631;42.152;24.756;2024-03-08T10:07:13;86400.50;;;-144.30;93.15
7180;BME280;3631;42.152;24.756;2024-03-08T10:09:40;86394.53;;;-144.30;93.49
7180;BME280;3631;42.152;24.756;2024-03-08T10:12:12;86382.59;;;-144.30;92.83
7180;BME280;3631;42.152;24.756;2024-03-08T10:14:40;86372.66;;;-144.30;93.47
7180;BME280;3631;42.152;24.756;2024-03-08T10:17:08;86398.50;;;-144.30;93.28
7180;BME280;3631;42.152;24.756;2024-03-08T10:19:36;86394.53;;;-144.30;93.10
7180;BME280;3631;42.152;24.756;2024-03-08T10:22:04;86426.34;;;-144.30;92.62
7180;BME280;3631;42.152;24.756;2024-03-08T10:24:32;86354.75;;;-144.30;91.31
7180;BME280;3631;42.152;24.756;2024-03-08T10:27:00;86255.34;;;-144.30;90.68
7180;BME280;3631;42.152;24.756;2024-03-08T10:29:31;86414.41;;;-144.30;90.65
7180;BME280;3631;42.152;24.756;2024-03-08T10:31:57;86388.56;;;-144.30;90.68
7180;BME280;3631;42.152;24.756;2024-03-08T10:34:25;86390.53;;;-144.30;90.99
7180;BME280;3631;42.152;24.756;2024-03-08T10:36:58;86358.72;;;-144.30;90.84
7180;BME280;3631;42.152;24.756;2024-03-08T10:39:31;86378.63;;;-144.30;90.53
7180;BME280;3631;42.152;24.756;2024-03-08T10:42:03;86348.78;;;-144.30;91.69
7180;BME280;3631;42.152;24.756;2024-03-08T10:44:41;86398.50;;;-144.30;91.61
7180;BME280;3631;42.152;24.756;2024-03-08T10:47:18;86366.69;;;-144.30;92.77
7180;BME280;3631;42.152;24.756;2024-03-08T10:49:51;86406.44;;;-144.30;92.52
7180;BME280;3631;42.152;24.756;2024-03-08T10:52:22;86356.75;;;-144.30;91.89
7180;BME280;3631;42.152;24.756;2024-03-08T10:54:49;86332.88;;;-144.30;91.78
7180;BME280;3631;42.152;24.756;2024-03-08T10:57:19;86366.69;;;-144.30;91.26
7180;BME280;3631;42.152;24.756;2024-03-08T10:59:49;86390.53;;;-144.30;91.01
7180;BME280;3631;42.152;24.756;2024-03-08T11:02:17;86354.75;;;-144.30;90.69
7180;BME280;3631;42.152;24.756;2024-03-08T11:04:49;86340.84;;;-144.30;90.81
7180;BME280;3631;42.152;24.756;2024-03-08T11:07:16;86346.81;;;-144.30;91.82
7180;BME280;3631;42.152;24.756;2024-03-08T11:09:47;86338.84;;;-144.30;91.36
7180;BME280;3631;42.152;24.756;2024-03-08T11:12:22;86344.81;;;-144.30;90.72
7180;BME280;3631;42.152;24.756;2024-03-08T11:14:51;86364.69;;;-144.30;90.99
7180;BME280;3631;42.152;24.756;2024-03-08T11:17:21;86368.66;;;-144.30;90.20
7180;BME280;3631;42.152;24.756;2024-03-08T11:19:48;86305.03;;;-144.30;90.70
7180;BME280;3631;42.152;24.756;2024-03-08T11:22:27;86311.00;;;-144.30;90.15
7180;BME280;3631;42.152;24.756;2024-03-08T11:25:01;86303.06;;;-144.30;90.45
7180;BME280;3631;42.152;24.756;2024-03-08T11:27:29;86370.66;;;-144.30;91.04
7180;BME280;3631;42.152;24.756;2024-03-08T11:30:01;86350.78;;;-144.30;91.24
7180;BME280;3631;42.152;24.756;2024-03-08T11:32:37;86311.00;;;-144.30;89.69
7180;BME280;3631;42.152;24.756;2024-03-08T11:35:06;86307.03;;;-144.30;89.54
7180;BME280;3631;42.152;24.756;2024-03-08T11:37:35;86342.81;;;-144.30;88.93
7180;BME280;3631;42.152;24.756;2024-03-08T11:40:12;86358.72;;;-144.30;88.43
7180;BME280;3631;42.152;24.756;2024-03-08T11:42:44;86313.00;;;-144.30;87.59
7180;BME280;3631;42.152;24.756;2024-03-08T11:45:13;86289.13;;;-144.30;87.59
7180;BME280;3631;42.152;24.756;2024-03-08T11:47:42;86311.00;;;-144.30;87.48
7180;BME280;3631;42.152;24.756;2024-03-08T11:50:12;86307.03;;;-144.30;87.78
7180;BME280;3631;42.152;24.756;2024-03-08T11:52:39;86255.34;;;-144.30;86.93
7180;BME280;3631;42.152;24.756;2024-03-08T11:55:08;86293.09;;;-144.30;86.66
7180;BME280;3631;42.152;24.756;2024-03-08T11:57:36;86281.19;;;-144.30;86.22
7180;BME280;3631;42.152;24.756;2024-03-08T12:00:04;86291.13;;;-144.30;85.76
7180;BME280;3631;42.152;24.756;2024-03-08T12:02:33;86326.91;;;-144.30;85.73
7180;BME280;3631;42.152;24.756;2024-03-08T12:05:04;86326.91;;;-144.30;86.19
7180;BME280;3631;42.152;24.756;2024-03-08T12:07:35;86283.16;;;-144.30;86.10
7180;BME280;3631;42.152;24.756;2024-03-08T12:10:17;86344.81;;;-144.30;86.42
7180;BME280;3631;42.152;24.756;2024-03-08T12:12:44;86354.75;;;-144.30;86.54
7180;BME280;3631;42.152;24.756;2024-03-08T12:15:13;86336.84;;;-144.30;88.11
7180;BME280;3631;42.152;24.756;2024-03-08T12:17:40;86326.91;;;-144.30;87.97
7180;BME280;3631;42.152;24.756;2024-03-08T12:20:13;86340.84;;;-144.30;87.93
7180;BME280;3631;42.152;24.756;2024-03-08T12:22:42;86354.75;;;-144.30;88.47
7180;BME280;3631;42.152;24.756;2024-03-08T12:25:10;86309.03;;;-144.30;88.85
7180;BME280;3631;42.152;24.756;2024-03-08T12:27:39;86344.81;;;-144.30;88.94
7180;BME280;3631;42.152;24.756;2024-03-08T12:30:18;86326.91;;;-144.30;89.04
7180;BME280;3631;42.152;24.756;2024-03-08T12:32:50;86354.75;;;-144.30;89.15
7180;BME280;3631;42.152;24.756;2024-03-08T12:35:19;86346.81;;;-144.30;88.86
7180;BME280;3631;42.152;24.756;2024-03-08T12:37:48;86336.84;;;-144.30;88.27
7180;BME280;3631;42.152;24.756;2024-03-08T12:40:17;86326.91;;;-144.30;88.15
7180;BME280;3631;42.152;24.756;2024-03-08T12:42:45;86356.75;;;-144.30;87.39
7180;BME280;3631;42.152;24.756;2024-03-08T12:45:14;86342.81;;;-144.30;88.45
7180;BME280;3631;42.152;24.756;2024-03-08T12:47:41;86267.25;;;-144.30;88.06
7180;BME280;3631;42.152;24.756;2024-03-08T12:50:10;86313.00;;;-144.30;88.24